createdAt,value
2023-04-15T00:02:20.232Z,0.87
2023-04-15T00:04:48.867Z,0.87
2023-04-15T00:07:16.410Z,1.37
2023-04-15T00:09:44.763Z,2.67
2023-04-15T00:12:12.830Z,0.63
2023-04-15T00:14:40.123Z,0.87
2023-04-15T00:17:07.455Z,0.70
2023-04-15T00:19:34.697Z,1.10
2023-04-15T00:22:01.934Z,1.97
2023-04-15T00:24:29.454Z,0.80
2023-04-15T00:26:56.654Z,0.93
2023-04-15T00:29:24.073Z,5.13
2023-04-15T00:31:51.235Z,0.60
2023-04-15T00:34:18.489Z,1.37
2023-04-15T00:36:45.819Z,0.73
2023-04-15T00:39:12.997Z,1.23
2023-04-15T00:41:40.173Z,1.47
2023-04-15T00:44:08.031Z,0.90
2023-04-15T00:46:38.337Z,0.80
2023-04-15T00:49:07.041Z,0.80
2023-04-15T00:51:36.977Z,0.83
2023-04-15T00:54:06.016Z,0.80
2023-04-15T00:56:38.093Z,1.00
2023-04-15T00:59:09.437Z,3.00
2023-04-15T01:01:38.540Z,3.20
2023-04-15T01:04:07.631Z,1.63
2023-04-15T01:06:34.748Z,2.83
2023-04-15T01:09:02.380Z,0.70
2023-04-15T01:11:30.763Z,0.90
2023-04-15T01:13:59.339Z,0.80
2023-04-15T01:16:27.594Z,0.67
2023-04-15T01:18:55.855Z,1.10
2023-04-15T01:21:23.309Z,1.43
2023-04-15T01:23:53.380Z,0.70
2023-04-15T01:26:22.278Z,0.70
2023-04-15T01:28:49.399Z,1.33
2023-04-15T01:31:16.847Z,1.10
2023-04-15T01:33:44.124Z,2.10
2023-04-15T01:36:11.326Z,0.80
2023-04-15T01:38:38.909Z,1.73
2023-04-15T01:41:08.193Z,1.53
2023-04-15T01:43:37.365Z,0.80
2023-04-15T01:46:04.623Z,1.33
2023-04-15T01:48:32.490Z,1.07
2023-04-15T01:51:00.024Z,0.80
2023-04-15T01:53:27.200Z,1.23
2023-04-15T01:55:54.260Z,1.90
2023-04-15T01:58:22.588Z,1.30
2023-04-15T02:00:49.665Z,1.10
2023-04-15T02:03:18.079Z,0.80
2023-04-15T02:05:45.375Z,1.17
2023-04-15T02:08:12.577Z,0.73
2023-04-15T02:10:39.813Z,0.80
2023-04-15T02:13:06.866Z,1.05
2023-04-15T02:15:34.438Z,1.10
2023-04-15T02:18:02.050Z,0.70
2023-04-15T02:20:30.848Z,0.80
2023-04-15T02:22:57.972Z,1.03
2023-04-15T02:25:25.196Z,4.10
2023-04-15T02:27:52.467Z,0.70
2023-04-15T02:30:19.780Z,1.00
2023-04-15T02:32:50.026Z,1.00
2023-04-15T02:35:19.869Z,0.60
2023-04-15T02:37:46.992Z,0.70
2023-04-15T02:40:14.382Z,1.20
2023-04-15T02:42:42.727Z,0.93
2023-04-15T02:45:12.121Z,4.63
2023-04-15T02:47:43.366Z,1.93
2023-04-15T02:50:13.384Z,0.98
2023-04-15T02:52:42.400Z,1.17
2023-04-15T02:55:10.132Z,1.00
2023-04-15T02:57:41.123Z,1.60
2023-04-15T03:00:11.543Z,0.80
2023-04-15T03:02:40.009Z,0.90
2023-04-15T03:05:11.838Z,1.33
2023-04-15T03:07:40.381Z,1.00
2023-04-15T03:10:08.765Z,0.88
2023-04-15T03:12:36.013Z,0.93
2023-04-15T03:15:03.514Z,3.00
2023-04-15T03:17:30.988Z,0.80
2023-04-15T03:19:58.118Z,1.20
2023-04-15T03:22:26.590Z,1.07
2023-04-15T03:24:53.671Z,1.00
2023-04-15T03:27:20.822Z,1.25
2023-04-15T03:29:47.916Z,1.10
2023-04-15T03:32:15.584Z,1.27
2023-04-15T03:34:42.831Z,5.57
2023-04-15T03:37:10.083Z,1.23
2023-04-15T03:39:37.112Z,1.27
2023-04-15T03:42:04.196Z,2.58
2023-04-15T03:44:31.309Z,1.20
2023-04-15T03:46:58.477Z,1.10
2023-04-15T03:49:25.725Z,1.77
2023-04-15T03:51:52.905Z,1.10
2023-04-15T03:54:20.026Z,3.25
2023-04-15T03:56:47.066Z,2.38
2023-04-15T03:59:14.228Z,1.13
2023-04-15T04:01:41.422Z,1.20
2023-04-15T04:04:08.645Z,1.30
2023-04-15T04:06:36.058Z,1.55
2023-04-15T04:09:03.594Z,1.27
2023-04-15T04:11:31.784Z,1.30
2023-04-15T04:13:59.082Z,1.70
2023-04-15T04:16:26.609Z,2.05
2023-04-15T04:18:53.872Z,2.85
2023-04-15T04:21:21.684Z,2.83
2023-04-15T04:23:48.789Z,4.05
2023-04-15T04:26:16.293Z,1.75
2023-04-15T04:28:43.417Z,1.70
2023-04-15T04:31:10.959Z,2.45
2023-04-15T04:33:38.151Z,2.58
2023-04-15T04:36:06.030Z,2.58
2023-04-15T04:38:33.149Z,1.95
2023-04-15T04:41:00.476Z,5.97
2023-04-15T04:43:27.628Z,2.90
2023-04-15T04:45:54.768Z,2.50
2023-04-15T04:48:21.825Z,1.95
2023-04-15T04:50:49.113Z,2.22
2023-04-15T04:53:16.396Z,2.47
2023-04-15T04:55:43.491Z,3.38
2023-04-15T04:58:10.699Z,3.15
2023-04-15T05:00:38.587Z,3.05
2023-04-15T05:03:06.343Z,4.50
2023-04-15T05:05:34.296Z,2.03
2023-04-15T05:08:01.578Z,3.38
2023-04-15T05:10:28.644Z,2.78
2023-04-15T05:12:55.823Z,2.58
2023-04-15T05:15:22.944Z,4.55
2023-04-15T05:17:50.154Z,7.05
2023-04-15T05:20:17.503Z,4.28
2023-04-15T05:22:44.611Z,5.13
2023-04-15T05:25:12.040Z,3.97
2023-04-15T05:27:39.146Z,4.60
2023-04-15T05:30:07.365Z,4.40
2023-04-15T05:32:34.609Z,3.65
2023-04-15T05:35:01.695Z,4.25
2023-04-15T05:37:28.803Z,4.35
2023-04-15T05:39:56.811Z,4.45
2023-04-15T05:42:23.966Z,4.63
2023-04-15T05:44:51.236Z,3.38
2023-04-15T05:47:18.391Z,5.75
2023-04-15T05:49:45.502Z,6.22
2023-04-15T05:52:12.617Z,7.60
2023-04-15T05:54:39.698Z,6.72
2023-04-15T05:57:07.507Z,5.68
2023-04-15T05:59:34.624Z,7.53
2023-04-15T06:02:01.997Z,10.00
2023-04-15T06:04:29.557Z,9.02
2023-04-15T06:06:59.433Z,7.28
2023-04-15T06:09:26.596Z,9.27
2023-04-15T06:11:53.860Z,11.63
2023-04-15T06:14:21.384Z,16.40
2023-04-15T06:16:48.553Z,12.63
2023-04-15T06:19:16.053Z,8.23
2023-04-15T06:21:43.683Z,7.70
2023-04-15T06:24:11.533Z,8.30
2023-04-15T06:26:38.863Z,7.15
2023-04-15T06:29:06.020Z,6.88
2023-04-15T06:31:33.168Z,6.75
2023-04-15T06:34:00.757Z,7.05
2023-04-15T06:36:28.009Z,7.40
2023-04-15T06:38:55.095Z,5.00
2023-04-15T06:41:22.273Z,5.65
2023-04-15T06:43:49.476Z,4.13
2023-04-15T06:46:16.687Z,3.47
2023-04-15T06:48:44.451Z,2.58
2023-04-15T06:51:11.833Z,3.05
2023-04-15T06:53:41.176Z,2.55
2023-04-15T06:56:09.823Z,3.10
2023-04-15T06:58:37.118Z,3.15
2023-04-15T07:01:04.909Z,5.30
2023-04-15T07:03:33.041Z,5.25
2023-04-15T07:06:01.709Z,3.92
2023-04-15T07:08:28.848Z,5.85
2023-04-15T07:10:56.112Z,3.85
2023-04-15T07:13:23.177Z,3.35
2023-04-15T07:15:50.526Z,3.30
2023-04-15T07:18:17.644Z,2.90
2023-04-15T07:20:44.718Z,2.17
2023-04-15T07:23:11.981Z,2.35
2023-04-15T07:25:39.117Z,2.78
2023-04-15T07:28:06.406Z,2.55
2023-04-15T07:30:33.549Z,2.28
2023-04-15T07:33:02.567Z,2.72
2023-04-15T07:35:29.848Z,1.70
2023-04-15T07:37:57.055Z,2.88
2023-04-15T07:40:24.177Z,1.33
2023-04-15T07:42:51.504Z,1.33
2023-04-15T07:45:18.746Z,1.45
2023-04-15T07:47:46.068Z,1.33
2023-04-15T07:50:13.204Z,1.38
2023-04-15T07:52:40.583Z,1.70
2023-04-15T07:55:10.812Z,1.58
2023-04-15T07:57:38.317Z,1.35
2023-04-15T08:00:07.615Z,4.68
2023-04-15T08:02:36.935Z,1.35
2023-04-15T08:05:06.189Z,1.88
2023-04-15T08:07:33.910Z,1.05
2023-04-15T08:10:01.172Z,1.00
2023-04-15T08:12:28.988Z,1.13
2023-04-15T08:14:57.366Z,0.80
2023-04-15T08:17:25.247Z,1.20
2023-04-15T08:19:55.317Z,1.05
2023-04-15T08:22:22.588Z,0.60
2023-04-15T08:24:49.692Z,0.82
2023-04-15T08:27:17.546Z,0.70
2023-04-15T08:29:45.756Z,1.73
2023-04-15T08:32:12.947Z,0.60
2023-04-15T08:34:40.158Z,1.35
2023-04-15T08:37:07.332Z,0.73
2023-04-15T08:39:34.417Z,0.93
2023-04-15T08:42:04.090Z,0.82
2023-04-15T08:44:34.412Z,0.70
2023-04-15T08:47:03.129Z,2.08
2023-04-15T08:49:31.500Z,1.42
2023-04-15T08:52:00.456Z,2.38
2023-04-15T08:54:28.671Z,1.13
2023-04-15T08:56:58.642Z,1.17
2023-04-15T08:59:25.947Z,1.13
2023-04-15T09:01:53.815Z,0.70
2023-04-15T09:04:20.975Z,1.02
2023-04-15T09:06:48.134Z,2.55
2023-04-15T09:09:15.313Z,1.80
2023-04-15T09:11:43.182Z,1.50
2023-04-15T09:14:13.584Z,2.22
2023-04-15T09:17:04.387Z,3.15
2023-04-15T09:19:34.427Z,2.17
2023-04-15T09:22:02.977Z,1.63
2023-04-15T09:24:39.419Z,1.48
2023-04-15T09:27:07.104Z,0.93
2023-04-15T09:29:34.578Z,1.33
2023-04-15T09:32:13.575Z,2.45
2023-04-15T09:34:40.786Z,1.20
2023-04-15T09:37:09.255Z,2.50
2023-04-15T09:39:53.017Z,2.38
2023-04-15T09:42:27.368Z,1.40
2023-04-15T09:44:54.659Z,1.20
2023-04-15T09:47:32.397Z,1.95
2023-04-15T09:50:01.699Z,1.15
2023-04-15T09:52:30.201Z,1.10
2023-04-15T09:55:01.070Z,1.10
2023-04-15T09:57:38.983Z,1.92
2023-04-15T10:00:08.381Z,2.05
2023-04-15T10:02:36.754Z,1.83
2023-04-15T10:05:04.456Z,2.25
2023-04-15T10:07:32.770Z,1.48
2023-04-15T10:10:03.732Z,1.23
2023-04-15T10:12:31.715Z,1.17
2023-04-15T10:15:06.018Z,1.50
2023-04-15T10:17:35.559Z,1.20
2023-04-15T10:20:05.455Z,0.70
2023-04-15T10:22:33.505Z,0.75
2023-04-15T10:25:02.348Z,1.00
2023-04-15T10:27:30.038Z,1.10
2023-04-15T10:29:57.740Z,1.38
2023-04-15T10:32:26.466Z,1.30
2023-04-15T10:34:54.874Z,1.23
2023-04-15T10:37:33.314Z,0.85
2023-04-15T10:40:00.630Z,3.15
2023-04-15T10:42:35.586Z,1.02
2023-04-15T10:45:03.617Z,2.33
2023-04-15T10:47:33.148Z,2.03
2023-04-15T10:50:02.573Z,1.33
2023-04-15T10:52:30.327Z,1.00
2023-04-15T10:55:15.875Z,3.70
2023-04-15T10:57:44.196Z,1.00
2023-04-15T11:00:19.590Z,1.40
2023-04-15T11:02:57.125Z,1.92
2023-04-15T11:05:42.585Z,1.70
2023-04-15T11:08:11.229Z,2.00
2023-04-15T11:10:38.294Z,1.23
2023-04-15T11:13:17.321Z,2.78
2023-04-15T11:15:46.133Z,1.00
2023-04-15T11:18:16.882Z,1.73
2023-04-15T11:20:48.948Z,4.18
2023-04-15T11:23:17.835Z,2.40
2023-04-15T11:25:46.030Z,1.92
2023-04-15T11:28:13.910Z,2.70
2023-04-15T11:30:42.434Z,1.80
2023-04-15T11:33:14.767Z,2.35
2023-04-15T11:35:44.886Z,2.20
2023-04-15T11:38:14.187Z,2.25
2023-04-15T11:40:45.260Z,3.38
2023-04-15T11:43:22.977Z,1.20
2023-04-15T11:45:55.211Z,1.27
2023-04-15T11:48:26.737Z,2.00
2023-04-15T11:51:05.993Z,1.45
2023-04-15T11:53:49.171Z,1.48
2023-04-15T11:56:26.530Z,2.28
2023-04-15T11:59:00.999Z,1.92
2023-04-15T12:01:36.470Z,4.15
2023-04-15T12:04:17.163Z,1.20
2023-04-15T12:06:44.996Z,1.33
2023-04-15T12:09:16.011Z,2.30
2023-04-15T12:11:48.364Z,0.85
2023-04-15T12:14:29.630Z,1.63
2023-04-15T12:17:06.914Z,1.58
2023-04-15T12:19:39.189Z,4.53
2023-04-15T12:22:12.032Z,4.80
2023-04-15T12:24:40.395Z,1.13
2023-04-15T12:27:09.852Z,1.10
2023-04-15T12:29:39.193Z,1.25
2023-04-15T12:32:10.856Z,1.30
2023-04-15T12:34:37.864Z,1.88
2023-04-15T12:37:07.853Z,1.75
2023-04-15T12:39:41.248Z,0.80
2023-04-15T12:42:09.832Z,1.30
2023-04-15T12:44:38.361Z,1.17
2023-04-15T12:47:07.116Z,1.00
2023-04-15T12:49:34.685Z,1.63
2023-04-15T12:52:03.866Z,6.20
2023-04-15T12:54:32.106Z,1.67
2023-04-15T12:56:59.980Z,4.97
2023-04-15T12:59:27.223Z,1.42
2023-04-15T13:01:54.826Z,0.60
2023-04-15T13:04:22.983Z,0.85
2023-04-15T13:06:50.528Z,1.25
2023-04-15T13:09:17.727Z,1.20
2023-04-15T13:11:44.956Z,0.88
2023-04-15T13:14:13.195Z,0.93
2023-04-15T13:16:40.958Z,1.73
2023-04-15T13:19:08.210Z,1.17
2023-04-15T13:21:36.357Z,1.85
2023-04-15T13:24:05.247Z,0.90
2023-04-15T13:26:32.921Z,0.90
2023-04-15T13:29:01.356Z,0.90
2023-04-15T13:31:28.641Z,0.88
2023-04-15T13:33:57.113Z,0.52
2023-04-15T13:36:24.224Z,2.08
2023-04-15T13:38:52.101Z,1.15
2023-04-15T13:41:20.147Z,0.60
2023-04-15T13:43:47.412Z,0.70
2023-04-15T13:46:15.229Z,1.20
2023-04-15T13:48:42.765Z,1.13
2023-04-15T13:51:10.131Z,0.50
2023-04-15T13:53:38.735Z,1.48
2023-04-15T13:56:10.609Z,0.77
2023-04-15T13:58:38.554Z,0.50
2023-04-15T14:01:07.480Z,1.50
2023-04-15T14:03:38.346Z,0.50
2023-04-15T14:06:06.905Z,0.40
2023-04-15T14:08:34.233Z,0.80
2023-04-15T14:11:01.932Z,0.70
2023-04-15T14:13:29.469Z,0.60
2023-04-15T14:15:57.784Z,1.05
2023-04-15T14:18:25.440Z,0.43
2023-04-15T14:20:52.807Z,0.60
2023-04-15T14:23:22.088Z,0.60
2023-04-15T14:25:50.764Z,0.40
2023-04-15T14:28:18.240Z,0.47
2023-04-15T14:30:45.441Z,0.38
2023-04-15T14:33:15.718Z,0.50
2023-04-15T14:35:43.131Z,0.50
2023-04-15T14:38:11.536Z,0.85
2023-04-15T14:40:39.198Z,0.60
2023-04-15T14:43:06.355Z,0.50
2023-04-15T14:45:34.034Z,1.10
2023-04-15T14:48:01.882Z,0.40
2023-04-15T14:50:29.564Z,0.70
2023-04-15T14:52:56.861Z,0.90
2023-04-15T14:55:24.037Z,0.80
2023-04-15T14:57:51.314Z,0.52
2023-04-15T15:00:18.530Z,0.60
2023-04-15T15:02:47.575Z,0.95
2023-04-15T15:05:15.193Z,1.90
2023-04-15T15:07:42.560Z,0.75
2023-04-15T15:10:10.212Z,1.02
2023-04-15T15:12:37.474Z,1.30
2023-04-15T15:15:15.771Z,0.70
2023-04-15T15:17:47.592Z,0.70
2023-04-15T15:20:16.707Z,0.73
2023-04-15T15:22:44.261Z,2.65
2023-04-15T15:25:11.953Z,1.00
2023-04-15T15:27:39.290Z,0.82
2023-04-15T15:30:07.243Z,1.02
2023-04-15T15:32:34.772Z,0.95
2023-04-15T15:35:02.196Z,1.00
2023-04-15T15:37:31.397Z,1.27
2023-04-15T15:39:59.611Z,1.00
2023-04-15T15:42:26.974Z,0.90
2023-04-15T15:44:54.289Z,1.00
2023-04-15T15:47:23.167Z,1.35
2023-04-15T15:49:50.441Z,1.52
2023-04-15T15:52:17.603Z,1.65
2023-04-15T15:54:45.104Z,3.80
2023-04-15T15:57:12.331Z,0.88
2023-04-15T15:59:43.786Z,1.00
2023-04-15T16:02:12.828Z,1.05
2023-04-15T16:04:41.104Z,1.33
2023-04-15T16:07:10.738Z,1.05
2023-04-15T16:09:38.015Z,1.13
2023-04-15T16:12:05.569Z,1.10
2023-04-15T16:14:33.096Z,0.80
2023-04-15T16:17:00.722Z,0.70
2023-04-15T16:19:27.968Z,1.10
2023-04-15T16:21:55.759Z,0.80
2023-04-15T16:24:23.126Z,0.95
2023-04-15T16:26:51.060Z,0.73
2023-04-15T16:29:18.993Z,1.55
2023-04-15T16:31:48.223Z,1.52
2023-04-15T16:34:16.117Z,1.83
2023-04-15T16:36:43.225Z,1.00
2023-04-15T16:39:10.328Z,2.83
2023-04-15T16:41:38.546Z,1.48
2023-04-15T16:44:08.764Z,4.20
2023-04-15T16:46:36.790Z,0.88
2023-04-15T16:49:06.948Z,1.30
2023-04-15T16:51:34.338Z,1.42
2023-04-15T16:54:01.554Z,2.40
2023-04-15T16:56:29.860Z,2.13
2023-04-15T16:58:57.124Z,1.73
2023-04-15T17:01:25.892Z,1.13
2023-04-15T17:03:55.915Z,1.75
2023-04-15T17:06:24.108Z,1.10
2023-04-15T17:08:51.964Z,1.05
2023-04-15T17:11:20.472Z,1.45
2023-04-15T17:13:48.170Z,1.50
2023-04-15T17:16:16.421Z,1.70
2023-04-15T17:18:44.228Z,3.53
2023-04-15T17:21:11.634Z,3.13
2023-04-15T17:23:39.273Z,1.38
2023-04-15T17:26:06.534Z,1.77
2023-04-15T17:28:33.761Z,1.30
2023-04-15T17:31:01.808Z,2.40
2023-04-15T17:33:59.098Z,1.13
2023-04-15T17:36:17.224Z,2.70
2023-04-15T17:38:48.915Z,1.17
2023-04-15T17:41:16.869Z,1.20
2023-04-15T17:43:44.862Z,1.25
2023-04-15T17:46:13.509Z,4.28
2023-04-15T17:48:41.609Z,2.90
2023-04-15T17:51:09.149Z,1.75
2023-04-15T17:53:36.555Z,1.50
2023-04-15T17:56:04.710Z,1.27
2023-04-15T17:58:32.929Z,1.85
2023-04-15T18:01:01.400Z,1.60
2023-04-15T18:03:29.524Z,1.20
2023-04-15T18:05:57.658Z,1.80
2023-04-15T18:08:26.153Z,5.03
2023-04-15T18:10:53.775Z,1.10
2023-04-15T18:13:21.715Z,1.10
2023-04-15T18:15:51.602Z,1.10
2023-04-15T18:18:19.493Z,1.30
2023-04-15T18:20:47.229Z,2.40
2023-04-15T18:23:15.585Z,1.40
2023-04-15T18:25:44.430Z,2.00
2023-04-15T18:28:12.541Z,1.60
2023-04-15T18:30:40.671Z,1.77
2023-04-15T18:33:08.643Z,2.10
2023-04-15T18:35:37.109Z,2.10
2023-04-15T18:38:05.146Z,2.70
2023-04-15T18:40:34.642Z,2.72
2023-04-15T18:43:02.771Z,2.67
2023-04-15T18:45:31.696Z,3.35
2023-04-15T18:48:00.009Z,3.00
2023-04-15T18:50:28.325Z,9.15
2023-04-15T18:52:55.849Z,3.67
2023-04-15T18:55:24.476Z,3.25
2023-04-15T18:57:52.279Z,3.60
2023-04-15T19:00:20.684Z,3.03
2023-04-15T19:02:48.822Z,3.72
2023-04-15T19:05:16.973Z,3.58
2023-04-15T19:07:45.110Z,3.25
2023-04-15T19:10:12.816Z,2.88
2023-04-15T19:12:41.441Z,3.30
2023-04-15T19:15:09.281Z,6.60
2023-04-15T19:17:36.863Z,2.95
2023-04-15T19:20:05.575Z,3.83
2023-04-15T19:22:34.683Z,4.00
2023-04-15T19:25:03.940Z,4.05
2023-04-15T19:27:32.207Z,3.08
2023-04-15T19:30:02.019Z,4.15
2023-04-15T19:32:30.551Z,2.47
2023-04-15T19:35:00.736Z,3.15
2023-04-15T19:37:31.841Z,2.28
2023-04-15T19:40:00.209Z,2.78
2023-04-15T19:42:28.369Z,3.05
2023-04-15T19:44:57.745Z,3.75
2023-04-15T19:47:26.923Z,6.97
2023-04-15T19:49:54.830Z,2.40
2023-04-15T19:52:24.312Z,2.90
2023-04-15T19:54:52.542Z,4.45
2023-04-15T19:57:20.698Z,4.03
2023-04-15T19:59:48.790Z,3.80
2023-04-15T20:02:17.449Z,3.58
2023-04-15T20:04:45.551Z,3.83
2023-04-15T20:07:13.425Z,2.67
2023-04-15T20:09:41.388Z,2.88
2023-04-15T20:12:50.221Z,3.35
2023-04-15T20:14:59.571Z,3.88
2023-04-15T20:17:27.213Z,4.43
2023-04-15T20:19:55.000Z,5.60
2023-04-15T20:22:23.199Z,7.65
2023-04-15T20:24:52.488Z,6.85
2023-04-15T20:27:21.740Z,5.28
2023-04-15T20:29:53.126Z,5.82
2023-04-15T20:32:21.469Z,4.70
2023-04-15T20:34:49.031Z,4.93
2023-04-15T20:37:17.409Z,5.03
2023-04-15T20:39:45.083Z,7.45
2023-04-15T20:42:12.709Z,7.43
2023-04-15T20:44:40.379Z,8.70
2023-04-15T20:47:08.045Z,12.50
2023-04-15T20:49:37.710Z,8.40
2023-04-15T20:52:07.647Z,10.70
2023-04-15T20:54:35.539Z,12.15
2023-04-15T20:57:02.635Z,10.68
2023-04-15T20:59:30.071Z,13.32
2023-04-15T21:01:59.161Z,14.40
2023-04-15T21:04:26.986Z,16.02
2023-04-15T21:06:54.492Z,13.65
2023-04-15T21:09:21.962Z,14.10
2023-04-15T21:14:19.855Z,14.60
2023-04-15T21:16:47.215Z,10.77
2023-04-15T21:19:14.330Z,12.30
2023-04-15T21:21:41.778Z,8.85
2023-04-15T21:24:09.334Z,7.63
2023-04-15T21:26:36.580Z,8.18
2023-04-15T21:29:03.881Z,5.95
2023-04-15T21:31:31.363Z,8.55
2023-04-15T21:33:58.478Z,7.13
2023-04-15T21:36:25.928Z,4.97
2023-04-15T21:38:53.084Z,6.43
2023-04-15T21:41:20.215Z,5.55
2023-04-15T21:43:47.302Z,4.65
2023-04-15T21:46:22.539Z,4.80
2023-04-15T21:48:55.492Z,5.90
2023-04-15T21:51:22.857Z,7.53
2023-04-15T21:53:50.017Z,8.32
2023-04-15T21:56:17.166Z,7.00
2023-04-15T21:58:44.218Z,7.50
2023-04-15T22:01:11.604Z,8.52
2023-04-15T22:03:39.115Z,7.93
2023-04-15T22:06:06.364Z,6.00
2023-04-15T22:08:41.269Z,6.10
2023-04-15T22:11:30.278Z,8.95
2023-04-15T22:13:58.782Z,7.18
2023-04-15T22:16:29.266Z,6.88
2023-04-15T22:18:56.478Z,6.72
2023-04-15T22:21:23.912Z,10.38
2023-04-15T22:23:51.978Z,7.72
2023-04-15T22:26:19.858Z,7.47
2023-04-15T22:28:47.041Z,6.65
2023-04-15T22:31:14.961Z,7.00
2023-04-15T22:33:42.144Z,9.15
2023-04-15T22:36:09.357Z,9.02
2023-04-15T22:38:36.526Z,9.02
2023-04-15T22:41:03.660Z,9.52
2023-04-15T22:43:30.819Z,10.93
2023-04-15T22:45:58.131Z,8.05
2023-04-15T22:48:25.324Z,7.78
2023-04-15T22:50:52.721Z,10.52
2023-04-15T22:53:20.096Z,10.77
2023-04-15T22:55:48.256Z,8.32
2023-04-15T22:58:16.316Z,7.55
2023-04-15T23:00:43.491Z,7.18
2023-04-15T23:03:10.998Z,6.93
2023-04-15T23:05:40.121Z,5.93
2023-04-15T23:08:07.760Z,7.35
2023-04-15T23:10:34.920Z,7.90
2023-04-15T23:13:02.069Z,6.65
2023-04-15T23:15:29.139Z,8.52
2023-04-15T23:17:56.282Z,6.90
2023-04-15T23:20:23.406Z,7.18
2023-04-15T23:22:50.546Z,8.88
2023-04-15T23:25:17.608Z,6.10
2023-04-15T23:27:44.752Z,9.85
2023-04-15T23:30:12.020Z,7.75
2023-04-15T23:32:39.155Z,8.07
2023-04-15T23:35:06.642Z,7.55
2023-04-15T23:37:33.815Z,10.02
2023-04-15T23:40:01.024Z,8.30
2023-04-15T23:42:28.243Z,11.68
2023-04-15T23:44:55.417Z,7.30
2023-04-15T23:47:23.013Z,6.57
2023-04-15T23:49:50.125Z,7.82
2023-04-15T23:52:17.376Z,9.23
2023-04-15T23:54:44.699Z,8.55
2023-04-15T23:57:11.761Z,8.93
2023-04-15T23:59:39.138Z,9.85
